Stoneville, South Dakota
Current Conditions -  °F | °C
As of 12:59 AM on Monday 26 Jan 2015 (Local Time) from KRCA Reporting Station
Clear Clear  
Wind Chill: 52°   Ceiling: Unl
Heat Index: 52°   Visibility: 10mi
Dew Point: 31°   Wind: 18mph
Humidity: 44%   Direction: 310°NW
Pressure: 29.96"   Gusts: 26mph
Location:  44.653°N, 102.847°W
Report Text: KRCA 260759Z AUTO 31016G23KT 10SM CLR 11/M01 A2996 RMK AO2 PK WND 31028/09 SLP150 T01131007 $
Loading
Personal Weather Stations






























Interactive Weather Map New forecast layout! Learn more

10-Day Weather Forecast

Advertisements
Track Severe Weather on mobile